Time;durP1;ratioP1;P1;durP2;ratioP2;P2;SDS_P1;SDS_P2;PMS_P1;PMS_P2;Temp;Humidity;BMP_temperature;BMP_pressure;BME280_temperature;BME280_humidity;BME280_pressure;Samples;Min_cycle;Max_cycle;Signal;HPM_P1;HPM_P2
2022/03/07 00:00:08;;;;;;;26.83;15.20;;;;;;;-0.32;57.51;101407.53;1626774;88;21052;-76
2022/03/07 00:02:37;;;;;;;24.60;15.13;;;;;;;-0.32;57.69;101401.95;1637534;87;21035;-76
2022/03/07 00:05:05;;;;;;;29.90;15.33;;;;;;;-0.32;57.68;101398.09;1688589;85;21051;-74
2022/03/07 00:07:32;;;;;;;25.07;15.20;;;;;;;-0.30;57.79;101402.01;1666920;86;21047;-75
2022/03/07 00:09:59;;;;;;;21.60;13.17;;;;;;;-0.30;57.87;101391.70;1688445;85;21091;-76
2022/03/07 00:12:27;;;;;;;24.57;15.03;;;;;;;-0.29;57.92;101398.16;1667219;86;21020;-75
2022/03/07 00:14:54;;;;;;;27.77;13.37;;;;;;;-0.27;58.01;101398.21;1688807;84;22020;-75
2022/03/07 00:17:21;;;;;;;27.20;14.70;;;;;;;-0.28;58.03;101404.17;1688475;85;21012;-76
2022/03/07 00:19:48;;;;;;;26.13;14.13;;;;;;;-0.27;58.14;101409.38;1667100;86;21012;-75
2022/03/07 00:22:15;;;;;;;22.67;13.57;;;;;;;-0.25;58.09;101410.30;1688518;84;21047;-76
2022/03/07 00:24:42;;;;;;;24.30;14.17;;;;;;;-0.28;58.18;101414.09;1688682;85;21074;-77
2022/03/07 00:27:09;;;;;;;25.97;14.50;;;;;;;-0.27;58.24;101411.95;1688395;85;21157;-77
2022/03/07 00:29:36;;;;;;;27.30;14.27;;;;;;;-0.28;58.15;101408.94;1667116;86;21008;-76
2022/03/07 00:32:04;;;;;;;26.00;13.87;;;;;;;-0.29;58.30;101401.16;1688366;84;21107;-77
2022/03/07 00:34:31;;;;;;;23.70;13.77;;;;;;;-0.30;58.35;101387.41;1688758;85;21024;-76
2022/03/07 00:36:58;;;;;;;26.20;13.83;;;;;;;-0.30;58.38;101387.84;1666983;86;21043;-75
2022/03/07 00:39:25;;;;;;;30.53;15.10;;;;;;;-0.31;58.38;101398.53;1688580;84;22301;-75
2022/03/07 00:41:53;;;;;;;28.10;14.93;;;;;;;-0.31;58.46;101394.67;1688312;85;21020;-77
2022/03/07 00:44:20;;;;;;;27.17;14.33;;;;;;;-0.35;58.41;101394.16;1667027;86;21518;-75
2022/03/07 00:46:47;;;;;;;25.70;13.70;;;;;;;-0.38;58.50;101390.66;1688389;84;21580;-75
2022/03/07 00:49:14;;;;;;;25.93;14.63;;;;;;;-0.39;58.69;101399.20;1666949;86;21051;-75
2022/03/07 00:51:41;;;;;;;27.17;14.43;;;;;;;-0.39;58.80;101389.76;1688385;84;21960;-76
2022/03/07 00:54:10;;;;;;;24.73;13.03;;;;;;;-0.40;58.94;101394.89;1658798;85;21287;-76
2022/03/07 00:56:38;;;;;;;24.47;13.37;;;;;;;-0.39;59.10;101393.62;1688505;85;21012;-77
2022/03/07 00:59:05;;;;;;;24.17;13.83;;;;;;;-0.40;59.23;101393.60;1688686;85;21027;-77
2022/03/07 01:01:33;;;;;;;23.17;12.47;;;;;;;-0.38;59.28;101392.80;1666928;86;21091;-76
2022/03/07 01:04:00;;;;;;;21.80;13.03;;;;;;;-0.37;59.34;101385.94;1688649;84;21965;-74
2022/03/07 01:06:28;;;;;;;23.90;12.60;;;;;;;-0.38;59.31;101382.92;1688558;85;21032;-76
2022/03/07 01:08:55;;;;;;;20.03;12.20;;;;;;;-0.38;59.51;101381.22;1688742;85;21043;-76
2022/03/07 01:11:22;;;;;;;22.93;12.80;;;;;;;-0.37;59.61;101381.66;1667250;86;21578;-77
2022/03/07 01:13:49;;;;;;;25.47;12.83;;;;;;;-0.35;59.72;101379.13;1688611;85;21019;-76
2022/03/07 01:16:16;;;;;;;26.20;13.60;;;;;;;-0.36;59.60;101369.25;1667264;86;22129;-77
2022/03/07 01:18:43;;;;;;;21.57;12.43;;;;;;;-0.36;59.65;101370.93;1688476;85;21039;-76
2022/03/07 01:21:12;;;;;;;22.33;11.97;;;;;;;-0.37;59.67;101363.63;1688753;85;20986;-75
2022/03/07 01:23:40;;;;;;;21.00;12.13;;;;;;;-0.39;59.72;101360.13;1688579;85;21061;-77
2022/03/07 01:26:07;;;;;;;22.03;12.43;;;;;;;-0.40;59.81;101360.12;1688902;85;21035;-76
2022/03/07 01:28:34;;;;;;;21.43;12.27;;;;;;;-0.40;59.91;101352.39;1688485;85;21530;-76
2022/03/07 01:31:01;;;;;;;21.00;11.30;;;;;;;-0.43;59.87;101348.45;1688809;85;21039;-76
2022/03/07 01:33:28;;;;;;;19.13;10.93;;;;;;;-0.46;60.02;101347.97;1688586;85;22104;-75
2022/03/07 01:35:56;;;;;;;20.33;12.23;;;;;;;-0.46;60.16;101347.55;1688798;85;21024;-77
2022/03/07 01:38:23;;;;;;;24.27;12.27;;;;;;;-0.48;60.22;101351.78;1688651;85;21043;-75
2022/03/07 01:40:50;;;;;;;22.13;12.03;;;;;;;-0.49;60.33;101348.77;1688627;85;21137;-77
2022/03/07 01:43:19;;;;;;;26.00;12.60;;;;;;;-0.50;60.49;101345.75;1688693;85;21031;-76
2022/03/07 01:45:46;;;;;;;25.10;12.50;;;;;;;-0.50;60.69;101338.41;1667046;86;21047;-75
2022/03/07 01:48:13;;;;;;;21.33;11.57;;;;;;;-0.49;60.79;101341.47;1688493;84;21051;-76
2022/03/07 01:50:42;;;;;;;22.10;11.67;;;;;;;-0.48;61.08;101335.04;1688774;85;21289;-77
2022/03/07 01:53:11;;;;;;;23.67;12.27;;;;;;;-0.47;61.00;101334.65;1629361;85;21154;-77
2022/03/07 01:55:38;;;;;;;21.53;11.73;;;;;;;-0.47;61.04;101335.94;1688693;85;21051;-76
2022/03/07 01:58:06;;;;;;;20.83;10.80;;;;;;;-0.49;61.20;101325.59;1688614;85;21055;-77
2022/03/07 02:00:34;;;;;;;20.97;11.00;;;;;;;-0.47;61.25;101326.50;1688790;85;21012;-77
2022/03/07 02:03:01;;;;;;;21.67;10.83;;;;;;;-0.47;61.29;101325.21;1666991;86;21047;-77
2022/03/07 02:05:30;;;;;;;21.27;11.53;;;;;;;-0.48;61.30;101328.60;1688735;85;21187;-76
2022/03/07 02:08:00;;;;;;;15.97;9.73;;;;;;;-0.50;61.31;101339.70;1688012;85;21080;-76
2022/03/07 02:10:28;;;;;;;16.97;10.50;;;;;;;-0.52;61.72;101335.82;1667321;86;20932;-76
2022/03/07 02:12:57;;;;;;;22.47;12.07;;;;;;;-0.50;61.74;101330.69;1659219;85;21079;-75
2022/03/07 02:15:25;;;;;;;22.27;11.50;;;;;;;-0.50;61.82;101326.83;1688794;85;21044;-77
2022/03/07 02:17:52;;;;;;;24.50;10.50;;;;;;;-0.50;61.96;101333.27;1688493;85;21202;-77
2022/03/07 02:20:19;;;;;;;19.20;10.87;;;;;;;-0.50;61.99;101329.01;1658983;85;21039;-76
2022/03/07 02:22:46;;;;;;;22.87;10.70;;;;;;;-0.49;62.03;101329.88;1688810;85;21012;-76
2022/03/07 02:25:13;;;;;;;18.57;10.13;;;;;;;-0.49;62.11;101326.02;1667208;86;20959;-77
2022/03/07 02:27:41;;;;;;;21.97;11.13;;;;;;;-0.46;62.22;101328.23;1688488;84;21027;-77
2022/03/07 02:30:10;;;;;;;21.20;10.73;;;;;;;-0.46;62.33;101323.08;1688814;85;21110;-76
2022/03/07 02:32:42;;;;;;;15.95;9.73;;;;;;;-0.44;62.39;101320.55;1688941;85;21534;-77
2022/03/07 02:35:14;;;;;;;21.30;10.37;;;;;;;-0.40;62.56;101324.05;1667052;86;21099;-77
2022/03/07 02:37:43;;;;;;;21.07;10.20;;;;;;;-0.39;62.59;101329.22;1688798;84;20948;-76
2022/03/07 02:40:12;;;;;;;20.67;10.03;;;;;;;-0.38;62.59;101321.97;1667159;86;21381;-77
2022/03/07 02:42:41;;;;;;;19.30;10.63;;;;;;;-0.35;62.83;101329.77;1687819;85;21333;-76
2022/03/07 02:45:09;;;;;;;17.63;9.87;;;;;;;-0.32;62.79;101327.25;1667191;86;21019;-77
2022/03/07 02:47:36;;;;;;;21.87;9.40;;;;;;;-0.30;62.87;101323.44;1688656;84;21035;-76
2022/03/07 02:50:05;;;;;;;19.40;10.37;;;;;;;-0.27;62.87;101327.36;1666947;86;21051;-77
2022/03/07 02:52:32;;;;;;;19.17;9.30;;;;;;;-0.27;62.86;101333.38;1688818;85;21055;-76
2022/03/07 02:55:00;;;;;;;17.37;9.57;;;;;;;-0.25;62.97;101331.72;1688458;85;22006;-77
2022/03/07 02:57:27;;;;;;;17.57;9.70;;;;;;;-0.23;63.13;101326.58;1667074;86;21039;-77
2022/03/07 02:59:54;;;;;;;18.33;8.97;;;;;;;-0.21;63.06;101327.92;1688643;85;21052;-77
2022/03/07 03:02:21;;;;;;;17.00;9.53;;;;;;;-0.24;63.11;101328.72;1662213;86;21031;-77
2022/03/07 03:04:49;;;;;;;16.43;9.23;;;;;;;-0.24;63.25;101329.58;1628022;87;21043;-76
2022/03/07 03:07:16;;;;;;;16.00;8.83;;;;;;;-0.23;63.27;101326.58;1654678;86;21200;-77
2022/03/07 03:09:45;;;;;;;15.53;8.43;;;;;;;-0.23;63.25;101324.00;1654647;86;20967;-77
2022/03/07 03:12:12;;;;;;;16.37;8.93;;;;;;;-0.27;63.37;101320.50;1655144;86;21040;-77
2022/03/07 03:14:40;;;;;;;16.33;8.57;;;;;;;-0.28;63.51;101322.64;1654709;86;21048;-76
2022/03/07 03:17:07;;;;;;;20.00;9.20;;;;;;;-0.29;63.54;101323.88;1654841;86;21549;-77
2022/03/07 03:19:34;;;;;;;16.33;8.50;;;;;;;-0.31;63.71;101319.97;1654743;86;21135;-76
2022/03/07 03:22:01;;;;;;;19.43;9.67;;;;;;;-0.31;63.86;101315.23;1654870;86;21044;-76
2022/03/07 03:24:28;;;;;;;17.07;9.00;;;;;;;-0.30;63.90;101306.69;1654762;86;20996;-77
2022/03/07 03:26:55;;;;;;;18.50;8.30;;;;;;;-0.30;64.03;101305.41;1654868;86;21109;-77
2022/03/07 03:29:22;;;;;;;16.77;8.40;;;;;;;-0.32;64.07;101310.50;1654676;86;21027;-76
2022/03/07 03:31:49;;;;;;;16.93;8.87;;;;;;;-0.33;64.16;101299.77;1655006;86;21132;-77
2022/03/07 03:34:17;;;;;;;17.00;8.83;;;;;;;-0.34;64.30;101292.85;1654705;86;21040;-76
2022/03/07 03:36:45;;;;;;;17.70;8.13;;;;;;;-0.34;64.29;101296.72;1654907;86;21399;-75
2022/03/07 03:39:12;;;;;;;17.53;8.23;;;;;;;-0.35;64.35;101291.13;1654762;86;21032;-77
2022/03/07 03:41:40;;;;;;;15.40;7.90;;;;;;;-0.37;64.44;101286.34;1654948;86;21043;-76
2022/03/07 03:44:07;;;;;;;15.90;8.37;;;;;;;-0.36;64.55;101285.53;1654667;86;21158;-77
2022/03/07 03:46:35;;;;;;;18.20;7.80;;;;;;;-0.38;64.54;101287.20;1655035;86;21092;-77
2022/03/07 03:49:02;;;;;;;14.73;7.23;;;;;;;-0.41;64.57;101291.00;1654612;86;21024;-77
2022/03/07 03:51:30;;;;;;;13.07;7.00;;;;;;;-0.45;64.58;101288.75;1654893;86;21035;-76
2022/03/07 03:53:57;;;;;;;13.57;7.00;;;;;;;-0.52;64.57;101288.18;1654662;86;21099;-77
2022/03/07 03:56:24;;;;;;;12.87;7.13;;;;;;;-0.55;64.73;101291.11;1654778;86;21850;-76
2022/03/07 03:58:51;;;;;;;12.23;6.50;;;;;;;-0.59;64.76;101294.02;1654646;86;20964;-77
2022/03/07 04:01:18;;;;;;;16.33;7.53;;;;;;;-0.61;64.93;101294.81;1654625;86;21111;-78
2022/03/07 04:03:45;;;;;;;15.73;6.93;;;;;;;-0.65;65.02;101289.16;1654679;86;21477;-76
2022/03/07 04:06:12;;;;;;;18.33;7.80;;;;;;;-0.68;65.07;101297.25;1654619;86;21032;-77
2022/03/07 04:08:40;;;;;;;12.50;6.93;;;;;;;-0.70;65.14;101300.63;1654655;86;21160;-77
2022/03/07 04:11:07;;;;;;;13.00;7.13;;;;;;;-0.72;65.32;101305.75;1654638;86;21276;-78
2022/03/07 04:13:34;;;;;;;15.77;6.83;;;;;;;-0.74;65.33;101307.41;1654584;86;21052;-77
2022/03/07 04:16:02;;;;;;;14.27;7.13;;;;;;;-0.75;65.48;101306.08;1654941;86;21055;-77
2022/03/07 04:18:29;;;;;;;13.60;7.77;;;;;;;-0.74;65.52;101306.55;1654734;86;21047;-77
2022/03/07 04:20:56;;;;;;;16.07;7.33;;;;;;;-0.73;65.67;101314.29;1654971;86;21530;-78
2022/03/07 04:23:24;;;;;;;20.10;9.37;;;;;;;-0.74;65.71;101315.56;1654641;86;22216;-75
2022/03/07 04:25:51;;;;;;;16.83;8.00;;;;;;;-0.75;65.72;101318.55;1654955;86;21067;-76
2022/03/07 04:28:18;;;;;;;17.03;8.23;;;;;;;-0.73;65.97;101319.44;1654680;86;21540;-78
2022/03/07 04:30:44;;;;;;;14.57;7.00;;;;;;;-0.69;66.14;101319.98;1654860;86;21052;-75
2022/03/07 04:33:11;;;;;;;16.33;8.63;;;;;;;-0.64;66.20;101323.06;1654745;86;21317;-77
2022/03/07 04:35:39;;;;;;;14.63;8.93;;;;;;;-0.59;66.35;101321.05;1654928;86;21076;-76
2022/03/07 04:38:06;;;;;;;13.03;7.37;;;;;;;-0.54;66.26;101332.75;1654824;86;21106;-76
2022/03/07 04:40:33;;;;;;;12.07;7.20;;;;;;;-0.53;66.25;101331.91;1655027;86;21087;-77
2022/03/07 04:43:01;;;;;;;13.23;6.50;;;;;;;-0.51;66.31;101331.53;1654823;86;21055;-76
2022/03/07 04:45:28;;;;;;;13.97;9.83;;;;;;;-0.47;66.38;101332.08;1655027;86;21111;-76
2022/03/07 04:47:56;;;;;;;15.00;10.07;;;;;;;-0.43;66.42;101335.58;1654791;86;21048;-77
2022/03/07 04:50:26;;;;;;;11.43;7.37;;;;;;;-0.41;66.45;101329.63;1654961;86;21048;-77
2022/03/07 04:52:55;;;;;;;13.55;7.17;;;;;;;-0.39;66.48;101329.22;1654872;86;21059;-78
2022/03/07 04:55:22;;;;;;;14.20;7.50;;;;;;;-0.36;66.48;101321.59;1654779;86;21100;-78
2022/03/07 04:57:49;;;;;;;13.47;7.80;;;;;;;-0.35;66.39;101328.90;1654829;86;21280;-78
2022/03/07 05:00:16;;;;;;;14.30;8.53;;;;;;;-0.35;66.50;101329.77;1654806;86;21490;-75
2022/03/07 05:02:43;;;;;;;49.83;30.93;;;;;;;-0.32;66.54;101328.96;1650335;86;21019;-78
2022/03/07 05:05:10;;;;;;;13.93;7.47;;;;;;;-0.29;66.72;101336.76;1611717;89;21014;-78
2022/03/07 05:07:38;;;;;;;29.40;17.47;;;;;;;-0.28;66.57;101335.91;1637820;87;21321;-75
2022/03/07 05:10:06;;;;;;;23.27;11.87;;;;;;;-0.28;66.70;101338.09;1611536;89;21995;-78
2022/03/07 05:12:33;;;;;;;15.23;8.60;;;;;;;-0.27;66.68;101330.80;1611333;89;21087;-76
2022/03/07 05:15:00;;;;;;;16.83;9.57;;;;;;;-0.26;66.77;101339.40;1637625;87;21020;-75
2022/03/07 05:17:29;;;;;;;20.87;9.90;;;;;;;-0.26;66.79;101332.53;1637514;87;21588;-77
2022/03/07 05:19:56;;;;;;;30.80;15.57;;;;;;;-0.25;66.70;101343.70;1637757;87;21015;-75
2022/03/07 05:22:24;;;;;;;14.77;7.50;;;;;;;-0.26;66.81;101343.27;1656291;86;21345;-77
2022/03/07 05:24:52;;;;;;;24.43;12.77;;;;;;;-0.27;66.84;101345.40;1632639;87;21059;-78
2022/03/07 05:27:19;;;;;;;27.33;11.60;;;;;;;-0.29;66.82;101348.34;1656269;86;21079;-78
2022/03/07 05:29:47;;;;;;;27.57;12.47;;;;;;;-0.30;67.01;101348.77;1632625;87;21040;-77
2022/03/07 05:32:14;;;;;;;17.10;8.83;;;;;;;-0.29;66.92;101345.77;1656264;86;21052;-76
2022/03/07 05:34:41;;;;;;;14.33;7.77;;;;;;;-0.30;67.01;101352.64;1632612;87;21100;-77
2022/03/07 05:37:08;;;;;;;14.13;8.17;;;;;;;-0.29;66.95;101358.23;1656110;86;21426;-77
2022/03/07 05:39:35;;;;;;;10.97;6.63;;;;;;;-0.32;67.11;101355.59;1637970;87;21043;-76
2022/03/07 05:42:03;;;;;;;15.60;7.00;;;;;;;-0.31;67.00;101353.88;1611644;89;21030;-76
2022/03/07 05:44:30;;;;;;;16.07;8.20;;;;;;;-0.35;67.02;101354.23;1638016;87;21038;-76
2022/03/07 05:46:58;;;;;;;14.00;8.13;;;;;;;-0.36;67.16;101358.95;1611671;89;21234;-76
2022/03/07 05:49:25;;;;;;;14.57;7.10;;;;;;;-0.36;67.13;101351.22;1637766;87;21026;-77
2022/03/07 05:51:52;;;;;;;14.80;7.23;;;;;;;-0.37;67.25;101355.03;1611560;89;21086;-77
2022/03/07 05:54:19;;;;;;;14.53;8.07;;;;;;;-0.37;67.30;101360.19;1637962;87;21088;-77
2022/03/07 05:56:47;;;;;;;19.83;8.20;;;;;;;-0.38;67.38;101358.03;1611574;88;38609;-78
2022/03/07 05:59:15;;;;;;;14.80;8.20;;;;;;;-0.38;67.40;101354.59;1637827;87;21133;-77
2022/03/07 06:01:42;;;;;;;19.43;9.00;;;;;;;-0.37;67.49;101361.05;1611652;89;21014;-77
2022/03/07 06:04:09;;;;;;;20.30;9.30;;;;;;;-0.36;67.48;101356.38;1637694;86;21464;-76
2022/03/07 06:06:36;;;;;;;15.30;8.23;;;;;;;-0.35;67.63;101358.52;1611563;89;20999;-76
2022/03/07 06:09:03;;;;;;;12.97;7.57;;;;;;;-0.34;67.59;101362.41;1637864;87;21027;-76
2022/03/07 06:11:30;;;;;;;15.23;7.97;;;;;;;-0.34;67.48;101357.25;1611610;89;21230;-75
2022/03/07 06:13:58;;;;;;;14.00;7.87;;;;;;;-0.34;67.63;101364.11;1637916;87;21019;-77
2022/03/07 06:16:24;;;;;;;15.57;7.80;;;;;;;-0.37;67.47;101361.47;1611697;89;21031;-77
2022/03/07 06:18:52;;;;;;;9.77;6.60;;;;;;;-0.38;67.60;101367.47;1637974;87;21031;-76
2022/03/07 06:21:19;;;;;;;13.10;7.63;;;;;;;-0.40;67.55;101363.98;1611652;89;21097;-77
2022/03/07 06:23:46;;;;;;;13.73;7.10;;;;;;;-0.42;67.62;101365.64;1637964;87;21120;-75
2022/03/07 06:26:14;;;;;;;13.37;7.73;;;;;;;-0.46;67.68;101365.58;1611544;89;21500;-77
2022/03/07 06:28:41;;;;;;;13.10;7.27;;;;;;;-0.46;67.71;101366.00;1637907;87;21631;-76
2022/03/07 06:31:08;;;;;;;11.77;6.80;;;;;;;-0.48;67.72;101366.38;1611633;89;20987;-78
2022/03/07 06:33:35;;;;;;;12.97;7.43;;;;;;;-0.50;67.87;101366.35;1638072;87;21039;-77
2022/03/07 06:36:07;;;;;;;14.83;7.47;;;;;;;-0.49;67.91;101366.80;1611587;89;21261;-77
2022/03/07 06:38:35;;;;;;;12.80;7.40;;;;;;;-0.50;67.87;101365.06;1637990;87;21012;-77
2022/03/07 06:41:03;;;;;;;12.77;7.63;;;;;;;-0.50;67.99;101366.74;1611512;89;21070;-76
2022/03/07 06:43:30;;;;;;;14.03;8.00;;;;;;;-0.50;68.09;101361.59;1638021;87;21052;-76
2022/03/07 06:45:57;;;;;;;13.13;7.17;;;;;;;-0.51;68.15;101363.30;1611576;89;21480;-77
2022/03/07 06:48:25;;;;;;;13.33;8.50;;;;;;;-0.51;68.10;101361.15;1637906;87;22128;-76
2022/03/07 06:50:52;;;;;;;16.67;7.73;;;;;;;-0.50;68.27;101352.58;1611508;89;21018;-77
2022/03/07 06:53:20;;;;;;;15.50;7.90;;;;;;;-0.46;68.29;101363.42;1637964;87;21079;-76
2022/03/07 06:55:47;;;;;;;17.60;9.77;;;;;;;-0.44;68.39;101357.89;1611524;89;21512;-77
2022/03/07 06:58:14;;;;;;;12.60;8.53;;;;;;;-0.42;68.52;101357.91;1638023;87;21000;-77
2022/03/07 07:00:41;;;;;;;18.13;8.70;;;;;;;-0.38;68.60;101364.47;1611485;89;22205;-76
2022/03/07 07:03:08;;;;;;;14.47;8.43;;;;;;;-0.32;68.82;101368.89;1634027;86;21110;-76
2022/03/07 07:05:35;;;;;;;18.67;8.97;;;;;;;-0.25;68.83;101366.89;1688468;85;21075;-77
2022/03/07 07:08:02;;;;;;;15.47;8.73;;;;;;;-0.21;68.68;101359.70;1688842;85;21032;-80
2022/03/07 07:10:29;;;;;;;14.57;8.67;;;;;;;-0.16;68.90;101359.39;1666898;86;21047;-77
2022/03/07 07:12:56;;;;;;;13.80;8.07;;;;;;;-0.11;68.74;101356.50;1688684;84;22058;-76
2022/03/07 07:15:23;;;;;;;15.33;7.73;;;;;;;-0.08;68.71;101349.25;1667149;86;21038;-83
2022/03/07 07:17:50;;;;;;;12.30;7.67;;;;;;;-0.04;68.75;101353.62;1688558;84;21059;-84
2022/03/07 07:20:17;;;;;;;14.40;8.87;;;;;;;0.00;68.86;101352.87;1688746;85;21035;-82
2022/03/07 07:22:44;;;;;;;14.60;8.70;;;;;;;0.08;68.95;101350.42;1688723;85;21489;-80
2022/03/07 07:25:11;;;;;;;16.43;8.87;;;;;;;0.13;68.79;101347.53;1688362;85;21532;-84
2022/03/07 07:27:39;;;;;;;17.37;8.87;;;;;;;0.17;68.95;101350.22;1688401;85;21004;-83
2022/03/07 07:30:09;;;;;;;18.10;9.47;;;;;;;0.24;68.84;101351.20;1667135;86;21011;-84
2022/03/07 07:32:38;;;;;;;11.60;8.30;;;;;;;0.32;68.95;101347.06;1688509;84;21027;-79
2022/03/07 07:35:08;;;;;;;16.87;9.18;;;;;;;0.39;68.93;101346.79;1688807;85;21549;-80
2022/03/07 07:37:36;;;;;;;13.32;8.98;;;;;;;0.48;68.98;101353.83;1688065;85;21151;-81
2022/03/07 07:40:05;;;;;;;15.13;9.27;;;;;;;0.55;68.88;101353.09;1688677;85;21020;-81
2022/03/07 07:42:32;;;;;;;14.10;9.27;;;;;;;0.62;69.01;101352.37;1669117;85;21025;-78
2022/03/07 07:45:00;;;;;;;15.10;8.43;;;;;;;0.72;69.05;101352.11;1700143;83;21105;-82
2022/03/07 07:47:27;;;;;;;15.53;9.63;;;;;;;0.79;69.04;101351.40;1700082;83;21038;-82
2022/03/07 07:49:54;;;;;;;16.23;9.70;;;;;;;0.89;69.01;101349.44;1698991;83;21596;-85
2022/03/07 07:52:21;;;;;;;18.27;9.60;;;;;;;0.97;68.90;101353.03;1684112;84;21043;-83
2022/03/07 07:54:47;;;;;;;19.97;10.47;;;;;;;1.06;68.93;101354.89;1696300;83;21533;-80
2022/03/07 07:57:14;;;;;;;15.70;9.07;;;;;;;1.15;68.83;101357.62;1692326;83;21016;-78
2022/03/07 07:59:41;;;;;;;13.47;8.43;;;;;;;1.25;68.97;101354.79;1696712;83;21123;-79
2022/03/07 08:02:08;;;;;;;11.93;9.10;;;;;;;1.33;68.88;101346.70;1688413;85;21211;-80
2022/03/07 08:04:35;;;;;;;17.23;10.00;;;;;;;1.41;68.95;101350.71;1683072;84;20954;-77
2022/03/07 08:07:03;;;;;;;16.90;9.80;;;;;;;1.45;68.67;101347.34;1684752;84;21545;-76
2022/03/07 08:09:30;;;;;;;20.10;10.27;;;;;;;1.43;68.59;101344.72;1683857;84;21012;-81
2022/03/07 08:11:56;;;;;;;15.93;10.33;;;;;;;1.43;68.56;101346.45;1675364;85;21035;-76
2022/03/07 08:14:23;;;;;;;16.57;10.03;;;;;;;1.42;68.46;101353.77;1674858;85;21195;-80
2022/03/07 08:16:50;;;;;;;15.13;9.60;;;;;;;1.42;68.67;101350.75;1676421;85;21001;-80
2022/03/07 08:19:17;;;;;;;16.33;11.63;;;;;;;1.48;68.87;101349.55;1681974;85;21040;-78
2022/03/07 08:21:44;;;;;;;16.97;10.77;;;;;;;1.59;69.04;101352.30;1675354;85;21028;-81
2022/03/07 08:24:11;;;;;;;17.13;10.20;;;;;;;1.70;69.18;101355.05;1679406;84;21075;-79
2022/03/07 08:26:39;;;;;;;16.17;9.97;;;;;;;1.82;69.14;101346.59;1677645;85;22127;-80
2022/03/07 08:29:05;;;;;;;20.23;11.03;;;;;;;1.89;69.08;101354.45;1676392;85;21048;-78
2022/03/07 08:31:32;;;;;;;13.73;9.23;;;;;;;1.97;69.03;101343.80;1682108;84;21052;-78
2022/03/07 08:33:59;;;;;;;14.43;9.63;;;;;;;2.08;68.99;101337.88;1686000;84;21068;-80
2022/03/07 08:36:26;;;;;;;20.40;12.20;;;;;;;2.19;69.05;101342.36;1676629;84;21046;-77
2022/03/07 08:38:53;;;;;;;18.37;11.27;;;;;;;2.29;68.76;101335.98;1681620;84;21955;-81
2022/03/07 08:41:20;;;;;;;12.80;9.63;;;;;;;2.35;68.92;101335.63;1685639;84;21026;-80
2022/03/07 08:43:49;;;;;;;18.30;9.63;;;;;;;2.48;68.84;101329.31;1682855;83;21028;-77
2022/03/07 08:46:16;;;;;;;15.47;9.50;;;;;;;2.57;68.59;101323.79;1682970;83;21552;-79
2022/03/07 08:48:43;;;;;;;14.97;9.43;;;;;;;2.65;68.50;101322.16;1683895;84;21073;-80
2022/03/07 08:51:14;;;;;;;14.93;9.40;;;;;;;2.77;68.37;101308.48;1684010;84;21112;-81
2022/03/07 08:53:41;;;;;;;12.17;9.07;;;;;;;2.88;68.26;101313.73;1693768;84;21092;-79
2022/03/07 08:56:08;;;;;;;16.17;9.80;;;;;;;2.94;67.91;101318.10;1675919;84;20994;-84
2022/03/07 08:58:35;;;;;;;14.67;10.30;;;;;;;2.98;67.89;101319.45;1671121;85;21028;-80
2022/03/07 09:01:03;;;;;;;15.03;9.70;;;;;;;3.12;68.09;101312.66;1671300;85;21032;-82
2022/03/07 09:03:30;;;;;;;14.30;9.53;;;;;;;3.22;67.76;101307.13;1669912;85;21077;-85
2022/03/07 09:05:57;;;;;;;14.10;9.50;;;;;;;3.33;67.93;101311.11;1636059;87;21087;-82
2022/03/07 09:08:24;;;;;;;15.37;10.20;;;;;;;3.45;67.61;101303.84;1636055;87;21064;-82
2022/03/07 09:10:51;;;;;;;30.47;21.00;;;;;;;3.54;67.59;101298.27;1642115;85;21510;-81
2022/03/07 09:13:18;;;;;;;16.97;11.67;;;;;;;3.70;67.73;101300.53;1689558;84;21023;-82
2022/03/07 09:15:47;;;;;;;16.63;9.97;;;;;;;3.88;67.47;101301.07;1683094;85;21133;-80
2022/03/07 09:18:14;;;;;;;18.80;10.50;;;;;;;4.03;67.30;101302.86;1643621;86;21012;-80
2022/03/07 09:20:41;;;;;;;17.33;9.83;;;;;;;4.09;66.89;101298.13;1636406;87;21031;-77
2022/03/07 09:23:08;;;;;;;24.17;13.13;;;;;;;4.24;67.05;101304.25;1691793;84;20992;-78
2022/03/07 09:25:36;;;;;;;27.40;16.73;;;;;;;4.37;66.63;101304.27;1691372;84;21012;-77
2022/03/07 09:28:05;;;;;;;17.23;11.57;;;;;;;4.54;66.67;101299.98;1637064;87;21151;-78
2022/03/07 09:30:33;;;;;;;17.63;11.87;;;;;;;4.74;66.49;101316.03;1636314;87;21050;-78
2022/03/07 09:33:03;;;;;;;17.40;10.03;;;;;;;4.80;65.98;101314.33;1691580;84;21593;-77
2022/03/07 09:35:33;;;;;;;15.50;9.73;;;;;;;4.75;65.48;101313.88;1637683;87;21046;-78
2022/03/07 09:38:01;;;;;;;15.30;9.37;;;;;;;4.69;65.09;101303.05;1636617;87;21103;-78
2022/03/07 09:40:28;;;;;;;24.20;14.17;;;;;;;4.74;65.16;101297.44;1691292;84;22030;-77
2022/03/07 09:42:55;;;;;;;15.60;10.30;;;;;;;4.83;65.14;101300.48;1637825;87;21019;-77
2022/03/07 09:45:22;;;;;;;24.90;15.73;;;;;;;4.97;65.12;101297.89;1636373;87;21058;-77
2022/03/07 09:47:50;;;;;;;16.57;9.83;;;;;;;5.08;64.78;101288.36;1691550;84;21044;-78
2022/03/07 09:54:10;;;;;;;14.80;9.87;;;;;;;5.18;64.29;101289.20;1672476;85;21174;-79
2022/03/07 09:56:37;;;;;;;13.43;9.23;;;;;;;5.19;63.94;101285.33;1686897;85;21013;-78
2022/03/07 09:59:07;;;;;;;15.87;10.27;;;;;;;5.24;63.83;101277.53;1664824;86;21343;-76
2022/03/07 10:01:36;;;;;;;13.93;8.60;;;;;;;5.35;63.74;101275.34;1672581;85;21554;-78
2022/03/07 10:04:10;;;;;;;16.23;10.07;;;;;;;5.48;63.60;101273.56;1690843;83;21013;-78
2022/03/07 10:06:38;;;;;;;15.23;10.63;;;;;;;5.73;63.72;101270.47;1722705;83;21173;-77
2022/03/07 10:09:06;;;;;;;14.70;9.83;;;;;;;5.89;63.51;101271.28;1722629;83;21011;-76
2022/03/07 10:11:34;;;;;;;12.93;8.73;;;;;;;6.15;63.42;101271.63;1722793;83;21032;-78
2022/03/07 10:14:05;;;;;;;19.90;11.80;;;;;;;6.38;63.11;101271.53;1722667;83;21640;-79
2022/03/07 10:16:42;;;;;;;12.40;9.03;;;;;;;6.62;62.99;101276.59;1722745;83;20996;-78
2022/03/07 10:19:15;;;;;;;20.37;12.00;;;;;;;6.88;62.28;101267.72;1722588;83;21096;-78
2022/03/07 10:21:48;;;;;;;13.30;9.40;;;;;;;7.10;62.02;101262.74;1722917;83;21020;-78
2022/03/07 10:24:16;;;;;;;13.33;8.40;;;;;;;7.43;61.71;101267.22;1722930;83;21014;-79
2022/03/07 10:26:44;;;;;;;18.10;10.60;;;;;;;7.73;61.03;101266.03;1722730;83;21019;-79
2022/03/07 10:29:11;;;;;;;11.33;7.80;;;;;;;7.93;60.57;101268.39;1722971;83;21039;-79
2022/03/07 10:31:44;;;;;;;11.97;9.23;;;;;;;8.13;60.29;101264.67;1722813;83;21083;-78
2022/03/07 10:34:10;;;;;;;11.00;8.47;;;;;;;8.29;59.63;101270.11;1722254;83;21056;-78
2022/03/07 10:36:42;;;;;;;10.40;6.95;;;;;;;8.46;59.11;101264.23;1722865;83;21553;-79
2022/03/07 10:39:13;;;;;;;8.60;5.90;;;;;;;8.72;58.84;101264.28;1723042;83;21031;-78
2022/03/07 10:41:46;;;;;;;10.73;7.57;;;;;;;8.98;58.42;101259.95;1722616;83;20997;-76
2022/03/07 10:44:34;;;;;;;11.77;7.90;;;;;;;9.20;58.01;101257.83;1723031;83;21122;-78
2022/03/07 10:47:15;;;;;;;12.33;8.23;;;;;;;9.44;57.58;101255.65;1722811;83;21027;-79
2022/03/07 10:49:56;;;;;;;25.45;13.35;;;;;;;9.75;57.22;101258.08;1722895;83;21047;-78
2022/03/07 10:52:25;;;;;;;13.93;8.90;;;;;;;9.95;56.37;101253.77;1723067;83;21092;-77
2022/03/07 10:54:52;;;;;;;13.18;7.95;;;;;;;10.13;56.04;101252.96;1722902;83;21159;-79
2022/03/07 10:57:21;;;;;;;12.20;8.28;;;;;;;10.23;55.47;101246.18;1722649;83;22274;-79
2022/03/07 10:59:48;;;;;;;13.48;9.10;;;;;;;10.29;54.73;101247.83;1722646;83;21000;-76
2022/03/07 11:02:17;;;;;;;20.08;11.97;;;;;;;10.36;54.45;101243.30;1723227;83;21071;-76
2022/03/07 11:04:50;;;;;;;12.53;7.43;;;;;;;10.51;54.36;101251.28;1716395;83;21017;-76
2022/03/07 11:07:18;;;;;;;9.08;5.65;;;;;;;10.72;53.98;101242.89;1698738;84;21056;-79
2022/03/07 11:09:52;;;;;;;8.28;5.40;;;;;;;10.94;53.84;101240.15;1698792;84;21246;-77
2022/03/07 11:12:15;;;;;;;9.68;5.42;;;;;;;11.00;53.07;101235.23;1698077;84;21021;-78
2022/03/07 11:14:43;;;;;;;7.95;4.50;;;;;;;10.50;51.93;101238.60;1705786;84;21021;-79
2022/03/07 11:17:14;;;;;;;6.62;4.08;;;;;;;10.36;51.65;101236.30;1705838;84;21036;-76
2022/03/07 11:19:46;;;;;;;8.55;4.60;;;;;;;10.45;51.58;101232.17;1705579;84;21052;-77
2022/03/07 11:22:11;;;;;;;13.00;6.67;;;;;;;10.37;51.12;101242.43;1705676;84;21187;-76